Houston, Texas
Traffic Map
Current Weather Conditions
Houston, Texas
Overcast
Overcast
54°
Feels Like: 54°
Wind Chill: 54° Ceiling: 500
Heat Index: 54° Visibility: 9mi
Dew Point: 51° Wind: 15mph
Humidity: 90% Direction: 70° (ENE)
Pressure: 29.88in Gusts: 22mph
Raw Report DataKIAH 031353Z 07013G19KT 9SM BKN005 OVC006 12/11 A2988 RMK AO2 PRESFR SLP120 T01220106 $
Traffic Incident Summary
Active as of:
Severity:
Category:
InformationThere was an issue retrieving the traffic information for this location. Please try a different location or try again shortly.
Advertisements
Track Severe Weather on mobile